Time;durP1;ratioP1;P1;durP2;ratioP2;P2;SDS_P1;SDS_P2;PMS_P1;PMS_P2;Temp;Humidity;BMP_temperature;BMP_pressure;BME280_temperature;BME280_humidity;BME280_pressure;Samples;Min_cycle;Max_cycle;Signal;HPM_P1;HPM_P2
2021/10/28 00:14:05;;;;;;;;;;;;;;;11.63;100.00;101984.16;5057842;28;827;-79
2021/10/28 00:16:34;;;;;;;;;;;;;;;11.58;100.00;101989.81;5059012;28;854;-79
2021/10/28 00:19:03;;;;;;;;;;;;;;;11.54;100.00;101980.25;5056347;28;803;-79
2021/10/28 00:21:32;;;;;;;;;;;;;;;11.46;100.00;101991.50;5056398;28;2025;-79
2021/10/28 00:24:04;;;;;;;;;;;;;;;11.44;100.00;101988.06;5056371;28;955;-79
2021/10/28 00:26:31;;;;;;;;;;;;;;;11.44;100.00;101987.19;5057190;28;823;-79
2021/10/28 00:29:00;;;;;;;;;;;;;;;11.42;100.00;101990.00;5059711;28;890;-79
2021/10/28 00:31:29;;;;;;;;;;;;;;;11.39;100.00;101987.50;5061956;28;2026;-78
2021/10/28 00:33:55;;;;;;;;;;;;;;;11.38;100.00;101984.91;5079438;28;1944;-78
2021/10/28 00:36:22;;;;;;;;;;;;;;;11.26;100.00;101985.72;5080434;28;894;-78
2021/10/28 00:38:51;;;;;;;;;;;;;;;11.30;100.00;101980.03;5079094;28;904;-78
2021/10/28 00:41:21;;;;;;;;;;;;;;;11.13;100.00;101983.84;5079832;28;1240;-78
2021/10/28 00:43:55;;;;;;;;;;;;;;;11.07;100.00;101986.91;5066519;28;2048;-79
2021/10/28 00:46:24;;;;;;;;;;;;;;;11.01;100.00;101983.75;5080104;28;899;-79
2021/10/28 00:48:50;;;;;;;;;;;;;;;11.05;100.00;101978.09;5063092;28;2219;-79
2021/10/28 00:51:25;;;;;;;;;;;;;;;10.95;100.00;101982.34;5079123;28;1866;-79
2021/10/28 00:53:52;;;;;;;;;;;;;;;10.99;100.00;101985.66;5079099;28;946;-79
2021/10/28 00:56:21;;;;;;;;;;;;;;;10.96;100.00;101978.69;5072225;28;2124;-79
2021/10/28 00:58:47;;;;;;;;;;;;;;;10.99;100.00;101978.47;5059011;28;951;-79
2021/10/28 01:01:14;;;;;;;;;;;;;;;11.10;100.00;101980.47;5059876;28;1170;-79
2021/10/28 01:03:41;;;;;;;;;;;;;;;10.80;100.00;101980.59;5060560;28;807;-78
2021/10/28 01:06:08;;;;;;;;;;;;;;;10.86;100.00;101978.41;5078043;28;1884;-78
2021/10/28 01:08:41;;;;;;;;;;;;;;;10.86;100.00;101985.59;5079201;28;795;-79
2021/10/28 01:11:08;;;;;;;;;;;;;;;10.82;100.00;101989.44;5079387;28;1889;-79
2021/10/28 01:13:35;;;;;;;;;;;;;;;10.81;100.00;101990.38;5080028;28;861;-79
2021/10/28 01:16:04;;;;;;;;;;;;;;;10.83;100.00;101993.84;5063057;28;2111;-79
2021/10/28 01:18:30;;;;;;;;;;;;;;;10.88;100.00;101991.72;5059250;28;787;-78
2021/10/28 01:20:57;;;;;;;;;;;;;;;10.82;100.00;101997.50;5059110;28;1189;-78
2021/10/28 01:23:24;;;;;;;;;;;;;;;10.80;100.00;101997.56;5059847;28;807;-79
2021/10/28 01:25:57;;;;;;;;;;;;;;;10.75;100.00;101996.16;5060746;28;1832;-79
2021/10/28 01:28:25;;;;;;;;;;;;;;;10.69;100.00;101992.03;5059508;28;795;-79
2021/10/28 01:30:57;;;;;;;;;;;;;;;10.70;100.00;101983.00;5060024;28;1894;-79
2021/10/28 01:33:24;;;;;;;;;;;;;;;10.65;100.00;101978.91;5068815;28;2076;-79
2021/10/28 01:35:50;;;;;;;;;;;;;;;10.63;100.00;101984.38;5079406;28;894;-79
2021/10/28 01:38:17;;;;;;;;;;;;;;;10.58;100.00;101986.47;5076637;28;2176;-78
2021/10/28 01:41:02;;;;;;;;;;;;;;;10.54;100.00;101980.44;5080599;28;1260;-78
2021/10/28 01:43:30;;;;;;;;;;;;;;;10.60;100.00;101973.81;5070234;28;2048;-78
2021/10/28 01:45:56;;;;;;;;;;;;;;;10.53;100.00;101980.53;5060234;28;813;-79
2021/10/28 01:48:23;;;;;;;;;;;;;;;10.58;100.00;101979.28;5060528;28;947;-79
2021/10/28 01:50:49;;;;;;;;;;;;;;;10.49;100.00;101976.31;5060658;28;1961;-79
2021/10/28 01:53:16;;;;;;;;;;;;;;;10.54;100.00;101963.47;5067505;28;1859;-78
2021/10/28 01:55:43;;;;;;;;;;;;;;;10.51;100.00;101977.06;5082260;28;785;-79
2021/10/28 01:58:13;;;;;;;;;;;;;;;10.46;100.00;101963.09;5092752;28;909;-78
2021/10/28 02:00:41;;;;;;;;;;;;;;;10.48;100.00;101964.72;5097389;28;1272;-78
2021/10/28 02:03:07;;;;;;;;;;;;;;;10.49;100.00;101961.06;5091395;28;2051;-78
2021/10/28 02:05:33;;;;;;;;;;;;;;;10.47;100.00;101957.63;5076692;28;787;-78
2021/10/28 02:08:00;;;;;;;;;;;;;;;10.42;100.00;101957.06;5076247;28;772;-78
2021/10/28 02:10:26;;;;;;;;;;;;;;;10.37;100.00;101958.28;5058184;28;1898;-78
2021/10/28 02:12:56;;;;;;;;;;;;;;;10.41;100.00;101954.44;5060880;28;2056;-78
2021/10/28 02:15:23;;;;;;;;;;;;;;;10.50;100.00;101949.38;5078162;28;808;-78
2021/10/28 02:17:50;;;;;;;;;;;;;;;10.39;100.00;101957.22;5077635;28;854;-78
2021/10/28 02:20:18;;;;;;;;;;;;;;;10.46;100.00;101957.72;5077320;28;1260;-78
2021/10/28 02:22:45;;;;;;;;;;;;;;;10.50;100.00;101954.75;5075773;28;2268;-78
2021/10/28 02:25:11;;;;;;;;;;;;;;;10.43;100.00;101953.44;5058511;28;931;-79
2021/10/28 02:27:39;;;;;;;;;;;;;;;10.53;100.00;101946.53;5058194;28;810;-79
2021/10/28 02:30:07;;;;;;;;;;;;;;;10.43;100.00;101948.06;5060012;28;1929;-79
2021/10/28 02:32:33;;;;;;;;;;;;;;;10.45;100.00;101943.47;5058161;28;1888;-79
2021/10/28 02:35:00;;;;;;;;;;;;;;;10.33;100.00;101946.91;5057611;28;882;-78
2021/10/28 02:37:28;;;;;;;;;;;;;;;10.23;100.00;101957.34;5057456;28;830;-79
2021/10/28 02:39:54;;;;;;;;;;;;;;;10.41;100.00;101938.34;5057975;28;1173;-79
2021/10/28 02:42:20;;;;;;;;;;;;;;;10.25;100.00;101944.69;5057100;28;811;-79
2021/10/28 02:44:47;;;;;;;;;;;;;;;10.32;100.00;101948.72;5075442;28;2103;-79
2021/10/28 02:47:14;;;;;;;;;;;;;;;10.16;100.00;101947.91;5076765;28;807;-79
2021/10/28 02:49:40;;;;;;;;;;;;;;;10.23;100.00;101951.97;5074955;28;1359;-79
2021/10/28 02:52:06;;;;;;;;;;;;;;;10.15;100.00;101954.22;5076520;28;1945;-79
2021/10/28 02:54:34;;;;;;;;;;;;;;;10.15;100.00;101950.69;5060654;28;2099;-79
2021/10/28 02:57:01;;;;;;;;;;;;;;;10.25;100.00;101942.00;5056382;28;792;-79
2021/10/28 02:59:27;;;;;;;;;;;;;;;10.22;100.00;101938.63;5056421;28;1272;-79
2021/10/28 03:01:54;;;;;;;;;;;;;;;10.29;100.00;101930.13;5056875;28;803;-79
2021/10/28 03:04:23;;;;;;;;;;;;;;;10.28;100.00;101932.91;5069559;28;2063;-79
2021/10/28 03:06:49;;;;;;;;;;;;;;;10.14;100.00;101931.06;5077583;28;896;-79
2021/10/28 03:09:21;;;;;;;;;;;;;;;10.12;100.00;101926.72;5077174;28;1271;-79
2021/10/28 03:11:49;;;;;;;;;;;;;;;10.18;100.00;101927.22;5077034;28;2006;-79
2021/10/28 03:14:19;;;;;;;;;;;;;;;10.34;100.00;101916.44;5063453;28;1891;-79
2021/10/28 03:19:36;;;;;;;;;;;;;;;10.30;100.00;101914.88;5057124;28;1342;-79
2021/10/28 03:27:33;;;;;;;;;;;;;;;10.11;100.00;101915.13;5077296;28;762;-79
2021/10/28 03:29:59;;;;;;;;;;;;;;;10.21;100.00;101923.47;5076767;28;1201;-79
2021/10/28 03:32:27;;;;;;;;;;;;;;;10.22;100.00;101917.19;5076815;28;1957;-79
2021/10/28 03:34:54;;;;;;;;;;;;;;;10.22;100.00;101914.50;5058957;28;1967;-79
2021/10/28 03:45:32;;;;;;;;;;;;;;;10.15;100.00;101913.16;5075165;28;2114;-78
2021/10/28 03:54:08;;;;;;;;;;;;;;;10.10;100.00;101904.50;5071072;28;2014;-79
2021/10/28 03:56:49;;;;;;;;;;;;;;;10.06;100.00;101902.03;5056377;28;1889;-79
2021/10/28 04:07:11;;;;;;;;;;;;;;;9.98;100.00;101898.09;5063747;28;2087;-78
2021/10/28 04:18:12;;;;;;;;;;;;;;;9.80;100.00;101891.16;5070243;28;2080;-78
2021/10/28 04:20:58;;;;;;;;;;;;;;;9.84;100.00;101903.44;5080539;28;1276;-78
2021/10/28 04:29:05;;;;;;;;;;;;;;;9.70;100.00;101897.06;5061279;28;1999;-78
2021/10/28 04:31:35;;;;;;;;;;;;;;;9.84;100.00;101898.06;5061631;28;1898;-78
2021/10/28 04:34:05;;;;;;;;;;;;;;;9.85;100.00;101892.63;5061464;28;2098;-78
2021/10/28 04:36:32;;;;;;;;;;;;;;;9.68;100.00;101906.16;5079317;28;767;-78
2021/10/28 04:39:00;;;;;;;;;;;;;;;9.82;100.00;101897.28;5079335;28;835;-79
2021/10/28 04:41:27;;;;;;;;;;;;;;;9.78;100.00;101899.28;5077459;28;1272;-79
2021/10/28 04:43:53;;;;;;;;;;;;;;;9.68;100.00;101903.47;5079751;28;918;-79
2021/10/28 04:46:19;;;;;;;;;;;;;;;9.66;100.00;101900.03;5060152;28;2206;-78
2021/10/28 04:48:46;;;;;;;;;;;;;;;9.69;100.00;101897.16;5059640;28;879;-79
2021/10/28 04:51:12;;;;;;;;;;;;;;;9.57;100.00;101901.44;5059324;28;1902;-78
2021/10/28 04:53:38;;;;;;;;;;;;;;;9.63;100.00;101892.16;5059429;28;815;-79
2021/10/28 04:56:04;;;;;;;;;;;;;;;9.53;100.00;101899.88;5071146;28;2067;-79
2021/10/28 04:58:30;;;;;;;;;;;;;;;9.45;100.00;101891.47;5059889;28;799;-78
2021/10/28 05:00:57;;;;;;;;;;;;;;;9.47;100.00;101889.56;5059692;28;1205;-78
2021/10/28 05:03:23;;;;;;;;;;;;;;;9.40;100.00;101881.00;5059740;28;855;-78
2021/10/28 05:05:49;;;;;;;;;;;;;;;9.45;100.00;101888.78;5059095;28;2031;-79
2021/10/28 05:08:15;;;;;;;;;;;;;;;9.55;100.00;101878.41;5058988;28;823;-79
2021/10/28 05:10:42;;;;;;;;;;;;;;;9.55;100.00;101876.56;5058755;28;1898;-79
2021/10/28 05:13:11;;;;;;;;;;;;;;;9.53;100.00;101885.63;5058570;28;801;-79
2021/10/28 05:15:47;;;;;;;;;;;;;;;9.38;100.00;101884.75;5070966;28;1856;-78
2021/10/28 05:18:14;;;;;;;;;;;;;;;9.39;100.00;101883.78;5078965;28;831;-78
2021/10/28 05:20:41;;;;;;;;;;;;;;;9.37;100.00;101883.88;5078481;28;1247;-78
2021/10/28 05:23:07;;;;;;;;;;;;;;;9.39;100.00;101883.78;5078878;28;819;-78
2021/10/28 05:25:33;;;;;;;;;;;;;;;9.36;100.00;101876.81;5077828;28;2127;-79
2021/10/28 05:28:00;;;;;;;;;;;;;;;9.33;100.00;101870.75;5079508;28;895;-79
2021/10/28 05:30:27;;;;;;;;;;;;;;;9.20;100.00;101886.66;5078863;28;1185;-79
2021/10/28 05:32:52;;;;;;;;;;;;;;;9.17;100.00;101881.50;5078211;28;1894;-79
2021/10/28 05:35:19;;;;;;;;;;;;;;;9.16;100.00;101877.09;5077063;28;2211;-79
2021/10/28 05:37:45;;;;;;;;;;;;;;;9.79;100.00;101876.91;5078582;28;806;-79
2021/10/28 05:40:11;;;;;;;;;;;;;;;9.85;100.00;101867.63;5079051;28;1197;-79
2021/10/28 05:42:42;;;;;;;;;;;;;;;10.13;100.00;101864.97;5078442;28;849;-78
2021/10/28 05:45:11;;;;;;;;;;;;;;;10.15;100.00;101864.88;5068887;28;2098;-78
2021/10/28 05:47:37;;;;;;;;;;;;;;;10.01;100.00;101874.63;5058385;28;828;-78
2021/10/28 05:50:07;;;;;;;;;;;;;;;10.06;100.00;101877.91;5057755;28;1193;-78
2021/10/28 05:52:34;;;;;;;;;;;;;;;9.97;100.00;101870.41;5058165;28;1957;-79
2021/10/28 05:55:02;;;;;;;;;;;;;;;9.98;100.00;101874.81;5065140;28;2052;-79
2021/10/28 05:57:28;;;;;;;;;;;;;;;9.96;100.00;101867.84;5077616;28;826;-79
2021/10/28 05:59:54;;;;;;;;;;;;;;;9.89;100.00;101858.44;5077756;28;1180;-78
2021/10/28 06:02:20;;;;;;;;;;;;;;;10.20;100.00;101866.31;5078036;28;847;-79
2021/10/28 06:04:46;;;;;;;;;;;;;;;10.14;100.00;101865.84;5072044;28;2041;-78
2021/10/28 06:07:12;;;;;;;;;;;;;;;10.08;100.00;101851.00;5040064;28;887;-78
2021/10/28 06:09:38;;;;;;;;;;;;;;;10.09;100.00;101863.44;5058287;28;1252;-78
2021/10/28 06:12:06;;;;;;;;;;;;;;;10.13;100.00;101862.31;5063312;28;2283;-78
2021/10/28 06:14:33;;;;;;;;;;;;;;;9.96;100.00;101862.47;5058585;28;876;-78
2021/10/28 06:17:07;;;;;;;;;;;;;;;10.01;100.00;101866.59;5057166;28;890;-78
2021/10/28 06:19:34;;;;;;;;;;;;;;;9.82;100.00;101855.25;5057932;28;1189;-78
2021/10/28 06:22:00;;;;;;;;;;;;;;;9.85;100.00;101862.28;5069027;28;1938;-78
2021/10/28 06:24:26;;;;;;;;;;;;;;;9.80;100.00;101853.66;5076625;28;878;-78
2021/10/28 06:26:53;;;;;;;;;;;;;;;9.99;100.00;101839.03;5059752;28;821;-78
2021/10/28 06:29:19;;;;;;;;;;;;;;;9.99;100.00;101847.06;5077974;28;1621;-79
2021/10/28 06:31:48;;;;;;;;;;;;;;;9.91;100.00;101856.53;5069010;28;2124;-78
2021/10/28 06:34:19;;;;;;;;;;;;;;;9.98;100.00;101860.56;5081755;28;920;-78
2021/10/28 06:36:46;;;;;;;;;;;;;;;9.85;100.00;101855.09;5077857;28;808;-78
2021/10/28 06:39:12;;;;;;;;;;;;;;;10.07;100.00;101858.16;5078200;28;1220;-78
2021/10/28 06:41:39;;;;;;;;;;;;;;;10.17;100.00;101854.91;5077587;28;1733;-78
2021/10/28 06:44:05;;;;;;;;;;;;;;;10.08;100.00;101853.66;5078642;28;799;-78
2021/10/28 06:46:31;;;;;;;;;;;;;;;10.14;100.00;101852.44;5075082;28;844;-78
2021/10/28 06:48:58;;;;;;;;;;;;;;;10.09;100.00;101855.38;5077207;28;787;-78
2021/10/28 06:51:25;;;;;;;;;;;;;;;10.01;100.00;101855.84;5070587;28;1998;-78
2021/10/28 06:53:57;;;;;;;;;;;;;;;10.20;100.00;101854.72;5059046;28;841;-78
2021/10/28 07:04:36;;;;;;;;;;;;;;;10.47;100.00;101853.00;5077497;28;828;-78
2021/10/28 07:07:02;;;;;;;;;;;;;;;10.52;100.00;101853.59;5072089;28;2123;-78
2021/10/28 07:09:31;;;;;;;;;;;;;;;10.54;100.00;101862.41;5076611;28;1177;-78
2021/10/28 07:14:30;;;;;;;;;;;;;;;11.36;100.00;101868.66;5069378;28;1899;-78
2021/10/28 07:27:28;;;;;;;;;;;;;;;16.04;100.00;101853.91;5069496;28;2015;-79
2021/10/28 07:30:14;;;;;;;;;;;;;;;16.38;100.00;101853.63;5057189;28;1363;-79
2021/10/28 07:33:06;;;;;;;;;;;;;;;17.52;100.00;101845.00;5057345;28;1894;-79
2021/10/28 07:38:37;;;;;;;;;;;;;;;18.38;100.00;101851.19;5062343;28;2286;-79
2021/10/28 07:55:23;;;;;;;;;;;;;;;18.61;100.00;101863.41;5062544;28;1953;-79
2021/10/28 07:58:12;;;;;;;;;;;;;;;19.39;93.60;101868.34;5061796;28;2036;-78
2021/10/28 08:06:23;;;;;;;;;;;;;;;20.31;71.21;101852.38;5081444;28;703;-79
2021/10/28 08:21:53;;;;;;;;;;;;;;;19.83;80.01;101843.91;5060282;28;810;-79
2021/10/28 08:29:47;;;;;;;;;;;;;;;19.61;81.27;101832.50;5070114;28;2091;-79
2021/10/28 08:32:15;;;;;;;;;;;;;;;19.29;85.89;101840.38;5061163;28;1890;-79
2021/10/28 08:34:42;;;;;;;;;;;;;;;18.23;100.00;101831.84;5061279;28;846;-79
2021/10/28 08:37:15;;;;;;;;;;;;;;;17.16;100.00;101836.56;5061118;28;892;-79
2021/10/28 08:39:46;;;;;;;;;;;;;;;17.36;100.00;101832.00;5075919;28;2260;-79
2021/10/28 08:42:14;;;;;;;;;;;;;;;18.30;100.00;101824.81;5082647;28;846;-79
2021/10/28 08:44:55;;;;;;;;;;;;;;;19.08;98.69;101824.38;5080011;28;841;-78
2021/10/28 08:47:24;;;;;;;;;;;;;;;18.32;100.00;101828.22;5079454;28;500;-79
2021/10/28 09:24:15;;;;;;;;;;;;;;;23.92;49.71;101768.25;5058417;28;892;-79
2021/10/28 09:26:55;;;;;;;;;;;;;;;24.40;47.74;101759.63;5059083;28;949;-79
2021/10/28 09:32:25;;;;;;;;;;;;;;;26.35;40.18;101755.38;5063975;28;2061;-79
2021/10/28 09:43:35;;;;;;;;;;;;;;;25.92;40.52;101758.34;5086153;28;1199;-79
2021/10/28 09:44:07;;;;;;;;;;;;;;;25.19;43.48;101762.41;5082150;28;760;-79
2021/10/28 09:54:20;;;;;;;;;;;;;;;29.84;31.55;101749.13;5062095;28;2004;-79
2021/10/28 09:59:47;;;;;;;;;;;;;;;28.05;35.73;101757.69;5085277;28;1351;-79
2021/10/28 10:02:21;;;;;;;;;;;;;;;29.43;32.48;101758.84;5079646;28;822;-79
2021/10/28 10:04:49;;;;;;;;;;;;;;;28.19;35.30;101760.19;5073096;28;2150;-79
2021/10/28 10:07:20;;;;;;;;;;;;;;;26.57;38.52;101757.84;5059193;28;778;-79
2021/10/28 10:09:47;;;;;;;;;;;;;;;25.59;41.40;101766.34;5059908;28;1201;-79
2021/10/28 10:12:15;;;;;;;;;;;;;;;24.79;43.31;101757.34;5064615;28;1961;-79
2021/10/28 10:14:42;;;;;;;;;;;;;;;24.73;44.10;101749.88;5071425;28;1943;-79
2021/10/28 10:17:09;;;;;;;;;;;;;;;23.97;46.47;101751.22;5078936;28;933;-78
2021/10/28 10:19:49;;;;;;;;;;;;;;;24.38;46.08;101737.84;5080221;28;2123;-79
2021/10/28 10:22:44;;;;;;;;;;;;;;;23.18;50.18;101753.53;5078027;28;2173;-79
2021/10/28 11:04:21;;;;;;;;;;;;;;;23.57;48.70;101714.13;5098336;28;634;-79
2021/10/28 11:27:10;;;;;;;;;;;;;;;24.14;46.99;101678.69;5040677;28;1423;-79
2021/10/28 12:17:33;;;;;;;;;;;;;;;21.68;57.90;101598.94;5056314;28;1018;-79
2021/10/28 12:20:42;;;;;;;;;;;;;;;23.07;51.91;101578.81;5072814;28;1331;-79
2021/10/28 12:27:49;;;;;;;;;;;;;;;24.60;43.87;101572.28;5062343;28;1872;-79
2021/10/28 12:46:00;;;;;;;;;;;;;;;23.50;48.77;101541.53;5071414;28;2078;-79
2021/10/28 13:35:37;;;;;;;;;;;;;;;21.32;66.20;101469.44;5079163;28;709;-79
2021/10/28 13:57:08;;;;;;;;;;;;;;;20.75;63.48;101447.84;5074015;28;2223;-78
2021/10/28 14:21:33;;;;;;;;;;;;;;;19.60;81.65;101417.09;5078099;28;1433;-79
2021/10/28 14:24:54;;;;;;;;;;;;;;;19.31;83.64;101417.53;5078863;28;1029;-79
2021/10/28 15:30:09;;;;;;;;;;;;;;;16.36;100.00;101365.53;5034654;28;1588;-78
2021/10/28 15:38:10;;;;;;;;;;;;;;;15.97;100.00;101352.09;5059845;28;2084;-79
2021/10/28 15:43:47;;;;;;;;;;;;;;;15.82;100.00;101350.84;5076426;28;771;-78
2021/10/28 16:23:19;;;;;;;;;;;;;;;14.56;100.00;101318.31;5063924;28;731;-79
2021/10/28 16:25:46;;;;;;;;;;;;;;;14.58;100.00;101324.44;5058874;28;2101;-79
2021/10/28 16:28:17;;;;;;;;;;;;;;;14.57;100.00;101321.88;5059394;28;1997;-78
2021/10/28 16:30:47;;;;;;;;;;;;;;;14.40;100.00;101322.50;5060452;28;1229;-79
2021/10/28 16:33:14;;;;;;;;;;;;;;;14.32;100.00;101331.25;5060061;28;762;-79
2021/10/28 16:35:41;;;;;;;;;;;;;;;14.26;100.00;101327.28;5059065;28;2084;-79
2021/10/28 16:38:08;;;;;;;;;;;;;;;14.29;100.00;101318.91;5059759;28;928;-79
2021/10/28 16:40:39;;;;;;;;;;;;;;;14.23;100.00;101321.28;5079095;28;1341;-78
2021/10/28 16:43:06;;;;;;;;;;;;;;;14.25;100.00;101317.44;5080352;28;816;-78
2021/10/28 16:45:32;;;;;;;;;;;;;;;14.21;100.00;101318.72;5079355;28;1840;-78
2021/10/28 16:47:58;;;;;;;;;;;;;;;14.13;100.00;101323.94;5080906;28;834;-78
2021/10/28 16:50:25;;;;;;;;;;;;;;;14.06;100.00;101320.09;5061315;28;1339;-78
2021/10/28 16:52:52;;;;;;;;;;;;;;;14.03;100.00;101326.56;5060236;28;825;-79
2021/10/28 16:55:18;;;;;;;;;;;;;;;13.97;100.00;101331.66;5060190;28;1967;-78
2021/10/28 16:57:44;;;;;;;;;;;;;;;13.91;100.00;101326.78;5080115;28;1272;-78
2021/10/28 17:00:11;;;;;;;;;;;;;;;13.80;100.00;101322.34;5081471;28;1267;-78
2021/10/28 17:02:37;;;;;;;;;;;;;;;13.81;100.00;101329.44;5068578;28;1840;-78
2021/10/28 17:05:04;;;;;;;;;;;;;;;13.76;100.00;101335.25;5058538;28;823;-78
2021/10/28 17:07:30;;;;;;;;;;;;;;;13.77;100.00;101333.41;5058779;28;853;-78
2021/10/28 17:09:59;;;;;;;;;;;;;;;13.72;100.00;101328.38;5057836;28;1184;-78
2021/10/28 17:12:25;;;;;;;;;;;;;;;13.68;100.00;101321.56;5067902;28;2099;-78
2021/10/28 17:14:52;;;;;;;;;;;;;;;13.73;100.00;101318.44;5060071;28;1962;-79
2021/10/28 17:17:18;;;;;;;;;;;;;;;13.63;100.00;101314.84;5070541;28;2075;-78
2021/10/28 17:19:46;;;;;;;;;;;;;;;13.58;100.00;101314.41;5078786;28;2107;-78
2021/10/28 17:22:12;;;;;;;;;;;;;;;13.63;100.00;101318.38;5078024;28;1922;-78
2021/10/28 17:24:45;;;;;;;;;;;;;;;13.59;100.00;101321.50;5079465;28;910;-78
2021/10/28 17:27:12;;;;;;;;;;;;;;;13.54;100.00;101321.88;5076857;28;2008;-78
2021/10/28 17:29:38;;;;;;;;;;;;;;;13.43;100.00;101313.84;5059793;28;1860;-79
2021/10/28 17:32:05;;;;;;;;;;;;;;;13.47;100.00;101326.09;5058903;28;981;-78
2021/10/28 17:34:34;;;;;;;;;;;;;;;13.39;100.00;101324.03;5059066;28;1961;-78
2021/10/28 17:37:01;;;;;;;;;;;;;;;13.36;100.00;101324.28;5059060;28;959;-78
2021/10/28 17:39:27;;;;;;;;;;;;;;;13.42;100.00;101321.06;5059711;28;2120;-78
2021/10/28 17:41:57;;;;;;;;;;;;;;;13.38;100.00;101316.94;5061500;28;781;-78
2021/10/28 17:44:35;;;;;;;;;;;;;;;13.33;100.00;101313.78;5059708;28;863;-78
2021/10/28 17:47:01;;;;;;;;;;;;;;;13.23;100.00;101312.84;5063361;28;1104;-78
2021/10/28 17:49:27;;;;;;;;;;;;;;;13.15;100.00;101318.84;5069070;28;2360;-78
2021/10/28 17:51:53;;;;;;;;;;;;;;;13.24;100.00;101311.84;5079095;28;806;-78
2021/10/28 17:54:19;;;;;;;;;;;;;;;13.15;100.00;101315.28;5063585;28;2158;-78
2021/10/28 17:56:45;;;;;;;;;;;;;;;13.02;100.00;101310.06;5059239;28;1000;-79
2021/10/28 17:59:11;;;;;;;;;;;;;;;13.07;100.00;101307.84;5058742;28;1311;-78
2021/10/28 18:01:40;;;;;;;;;;;;;;;13.07;100.00;101299.75;5060077;28;907;-79
2021/10/28 18:04:07;;;;;;;;;;;;;;;12.98;100.00;101294.28;5058886;28;2091;-78
2021/10/28 18:06:33;;;;;;;;;;;;;;;12.90;100.00;101301.19;5060929;28;2094;-78
2021/10/28 18:09:01;;;;;;;;;;;;;;;12.93;100.00;101290.16;5058177;28;822;-78
2021/10/28 18:11:27;;;;;;;;;;;;;;;12.96;100.00;101298.94;5058011;28;1254;-78
2021/10/28 18:13:56;;;;;;;;;;;;;;;13.00;100.00;101306.66;5058180;28;2020;-78
2021/10/28 18:16:26;;;;;;;;;;;;;;;12.92;100.00;101296.53;5059159;28;808;-78
2021/10/28 18:18:54;;;;;;;;;;;;;;;12.92;100.00;101303.75;5060388;28;3462;-78
2021/10/28 18:21:25;;;;;;;;;;;;;;;12.92;100.00;101301.91;5059230;28;3900;-78
2021/10/28 18:23:52;;;;;;;;;;;;;;;12.89;100.00;101299.47;5067664;28;2041;-78
2021/10/28 18:26:19;;;;;;;;;;;;;;;12.96;100.00;101302.50;5078356;28;744;-78
2021/10/28 18:28:46;;;;;;;;;;;;;;;12.82;100.00;101292.88;5077495;28;811;-79
2021/10/28 18:31:13;;;;;;;;;;;;;;;12.73;100.00;101300.88;5077061;28;1653;-78
2021/10/28 18:33:40;;;;;;;;;;;;;;;12.74;100.00;101303.44;5068943;28;1988;-78
2021/10/28 18:36:08;;;;;;;;;;;;;;;12.71;100.00;101294.75;5057458;28;1961;-78
2021/10/28 18:38:34;;;;;;;;;;;;;;;12.68;100.00;101297.69;5056922;28;1040;-78
2021/10/28 18:41:00;;;;;;;;;;;;;;;12.66;100.00;101294.25;5057846;28;1256;-78
2021/10/28 18:43:27;;;;;;;;;;;;;;;12.61;100.00;101294.66;5057523;28;2100;-78
2021/10/28 18:45:54;;;;;;;;;;;;;;;12.59;100.00;101291.25;5057823;28;831;-78
2021/10/28 18:48:21;;;;;;;;;;;;;;;12.55;100.00;101296.00;5057197;28;893;-78
2021/10/28 18:50:47;;;;;;;;;;;;;;;12.56;100.00;101294.16;5057938;28;1226;-78
2021/10/28 18:53:14;;;;;;;;;;;;;;;12.52;100.00;101292.72;5057481;28;2115;-78
2021/10/28 18:55:40;;;;;;;;;;;;;;;12.53;100.00;101283.66;5067978;28;1898;-79
2021/10/28 18:58:07;;;;;;;;;;;;;;;12.45;100.00;101281.59;5088996;28;1499;-78
2021/10/28 19:00:34;;;;;;;;;;;;;;;12.48;100.00;101280.47;5097453;28;1283;-78
2021/10/28 19:03:00;;;;;;;;;;;;;;;12.47;100.00;101286.84;5094066;28;1961;-78
2021/10/28 19:05:27;;;;;;;;;;;;;;;12.39;100.00;101281.22;5077008;28;810;-78
2021/10/28 19:07:53;;;;;;;;;;;;;;;12.40;100.00;101272.19;5067053;28;1907;-78
2021/10/28 19:10:19;;;;;;;;;;;;;;;12.33;100.00;101269.13;5057157;28;1276;-78
2021/10/28 19:12:46;;;;;;;;;;;;;;;12.32;100.00;101265.59;5068628;28;803;-78
2021/10/28 19:15:14;;;;;;;;;;;;;;;12.31;100.00;101266.56;5065773;28;2659;-78
2021/10/28 19:17:43;;;;;;;;;;;;;;;12.26;100.00;101273.28;5056992;28;1845;-78
2021/10/28 19:20:09;;;;;;;;;;;;;;;12.17;100.00;101263.28;5057183;28;1272;-78
2021/10/28 19:22:36;;;;;;;;;;;;;;;12.13;100.00;101267.19;5056737;28;815;-79
2021/10/28 19:25:05;;;;;;;;;;;;;;;12.10;100.00;101271.00;5058297;28;885;-78
2021/10/28 19:27:31;;;;;;;;;;;;;;;12.09;100.00;101269.25;5060596;28;2084;-79
2021/10/28 19:30:07;;;;;;;;;;;;;;;12.00;100.00;101262.81;5066202;28;1276;-79
2021/10/28 19:32:34;;;;;;;;;;;;;;;11.97;100.00;101263.03;5061388;28;1777;-78
2021/10/28 19:35:00;;;;;;;;;;;;;;;12.00;100.00;101262.81;5064715;28;1955;-78
2021/10/28 19:37:37;;;;;;;;;;;;;;;11.98;100.00;101264.75;5063601;28;1969;-79
2021/10/28 19:45:33;;;;;;;;;;;;;;;11.92;100.00;101261.72;5064534;28;862;-78
2021/10/28 19:47:59;;;;;;;;;;;;;;;12.11;100.00;101253.88;5077210;28;2047;-78
2021/10/28 19:50:26;;;;;;;;;;;;;;;12.11;100.00;101270.03;5082061;28;2089;-78
2021/10/28 19:52:52;;;;;;;;;;;;;;;12.07;100.00;101263.16;5064425;28;2076;-78
2021/10/28 19:55:19;;;;;;;;;;;;;;;11.99;100.00;101265.59;5064348;28;1866;-78
2021/10/28 19:57:52;;;;;;;;;;;;;;;11.93;100.00;101261.59;5065536;28;875;-78
2021/10/28 20:00:33;;;;;;;;;;;;;;;11.95;100.00;101258.78;5064920;28;1291;-78
2021/10/28 20:13:49;;;;;;;;;;;;;;;11.83;100.00;101255.22;5079013;28;578;-78
2021/10/28 20:21:28;;;;;;;;;;;;;;;11.71;100.00;101254.34;5068862;28;1933;-78
2021/10/28 20:23:55;;;;;;;;;;;;;;;11.74;100.00;101253.22;5061778;28;990;-78
2021/10/28 20:26:22;;;;;;;;;;;;;;;11.70;100.00;101259.81;5062621;28;2092;-78
2021/10/28 20:28:49;;;;;;;;;;;;;;;11.65;100.00;101251.25;5061842;28;2000;-78
2021/10/28 20:31:19;;;;;;;;;;;;;;;11.63;100.00;101242.47;5061741;28;2057;-78
2021/10/28 20:34:02;;;;;;;;;;;;;;;11.62;100.00;101247.00;5064072;28;1997;-78
2021/10/28 20:39:07;;;;;;;;;;;;;;;11.47;100.00;101251.72;5061599;28;838;-79
2021/10/28 20:41:33;;;;;;;;;;;;;;;11.47;100.00;101248.19;5062556;28;742;-78
2021/10/28 20:43:59;;;;;;;;;;;;;;;11.32;100.00;101252.91;5059077;28;825;-79
2021/10/28 20:46:26;;;;;;;;;;;;;;;11.34;100.00;101263.53;5059311;28;1946;-78
2021/10/28 20:48:56;;;;;;;;;;;;;;;11.35;100.00;101247.31;5059011;28;1716;-78
2021/10/28 20:51:22;;;;;;;;;;;;;;;11.24;100.00;101251.78;5058821;28;1165;-78
2021/10/28 20:53:49;;;;;;;;;;;;;;;11.32;100.00;101249.38;5058514;28;785;-78
2021/10/28 20:56:15;;;;;;;;;;;;;;;11.31;100.00;101240.47;5068008;28;2013;-78
2021/10/28 20:58:41;;;;;;;;;;;;;;;11.20;100.00;101241.28;5073058;28;2329;-78
2021/10/28 21:01:07;;;;;;;;;;;;;;;11.22;100.00;101240.31;5058663;28;1789;-78
2021/10/28 21:03:33;;;;;;;;;;;;;;;11.19;100.00;101242.25;5058393;28;743;-77
2021/10/28 21:06:01;;;;;;;;;;;;;;;10.97;100.00;101236.81;5058203;28;2005;-78
2021/10/28 21:08:27;;;;;;;;;;;;;;;11.08;100.00;101233.31;5063520;28;2001;-78
2021/10/28 21:10:54;;;;;;;;;;;;;;;11.02;100.00;101234.66;5073664;28;1977;-78
2021/10/28 21:13:22;;;;;;;;;;;;;;;11.02;100.00;101231.97;5058447;28;800;-78
2021/10/28 21:15:48;;;;;;;;;;;;;;;11.05;100.00;101231.72;5058483;28;1902;-78
2021/10/28 21:18:14;;;;;;;;;;;;;;;11.00;100.00;101233.03;5058363;28;900;-78
2021/10/28 21:20:39;;;;;;;;;;;;;;;10.98;100.00;101235.84;5058126;28;1931;-78
2021/10/28 21:23:06;;;;;;;;;;;;;;;10.91;100.00;101237.25;5059089;28;732;-78
2021/10/28 21:25:32;;;;;;;;;;;;;;;10.90;100.00;101223.00;5057500;28;986;-78
2021/10/28 21:27:58;;;;;;;;;;;;;;;10.80;100.00;101227.34;5057660;28;1001;-78
2021/10/28 21:30:24;;;;;;;;;;;;;;;10.82;100.00;101221.88;5060843;28;1863;-78
2021/10/28 21:32:50;;;;;;;;;;;;;;;10.84;100.00;101226.16;5072404;28;1943;-78